• Join FlightAware (Why Join?)
  • Login
  • US Flag 
07:15AM EDT


 

Airport Tracker/Info


-or-


 

Live Flight TrackerFlight Track Log ✈ N789EX ✈ 23-Apr-2014 ✈ KBFI - KBFI

Flight Track Log - Related Links

Times and Time Zones

All times are in EDT time to prevent confusion due to time zone crossing. See the N789EX flight status page for this flight to view local times or setup timezone preferences in your user account.

Time Position Orientation Groundspeed Altitude Reporting Facility
EDT Latitude Longitude Course Direction KTS MPH feet Rate Location/Type
02:40PM 47.4950 -122.2690 143° Southeast 183 211 1,900  Level FlightAware ADS-B
02:40PM 47.4839 -122.2570 143° Southeast 206 237 2,200 1,200 Climbing FlightAware ADS-B
02:41PM 47.4715 -122.2430 144° Southeast 230 265 2,500 1,740 Climbing FlightAware ADS-B
02:41PM 47.4580 -122.2290 144° Southeast 241 277 3,100 2,460 Climbing FlightAware ADS-B
02:41PM 47.4443 -122.2140 144° Southeast 247 284 3,800 2,880 Climbing FlightAware ADS-B
02:41PM 47.4304 -122.2000 145° Southeast 252 290 4,500 2,820 Climbing FlightAware ADS-B
02:42PM 47.4275 -122.1970 147° Southeast 253 291 4,600 3,000 Climbing FlightAware ADS-B
02:42PM 47.4244 -122.1940 151° Southeast 254 292 4,800 2,520 Climbing FlightAware ADS-B
02:42PM 47.4204 -122.1910 157° South 255 293 4,900 1,980 Climbing FlightAware ADS-B
02:42PM 47.4152 -122.1890 164° South 255 293 5,100 2,220 Climbing FlightAware ADS-B
02:42PM 47.4110 -122.1880 169° South 256 295 5,200 2,220 Climbing FlightAware ADS-B
02:42PM 47.4061 -122.1860 171° South 257 296 5,400 2,820 Climbing FlightAware ADS-B
02:42PM 47.3914 -122.1840 174° South 259 298 6,000 2,640 Climbing FlightAware ADS-B
02:42PM 47.3730 -122.1810 174° South 267 307 6,600 1,920 Climbing FlightAware ADS-B
02:43PM 47.3566 -122.1790 173° South 272 313 6,900 1,140 Climbing FlightAware ADS-B
02:43PM 47.3466 -122.1770 173° South 273 314 7,000 540 Climbing FlightAware ADS-B
02:43PM 47.3428 -122.1760 175° South 272 313 7,000  Level FlightAware ADS-B
02:43PM 47.3383 -122.1760 179° South 271 312 7,000  Level FlightAware ADS-B
02:43PM 47.3341 -122.1760 184° South 268 308 7,000  Level FlightAware ADS-B
02:43PM 47.3305 -122.1770 189° South 267 307 7,000  Level FlightAware ADS-B
02:43PM 47.3257 -122.1790 197° South 263 303 7,000  Level FlightAware ADS-B
02:43PM 47.3223 -122.1810 202° Southwest 261 300 7,000  Level FlightAware ADS-B
02:43PM 47.3191 -122.1830 208° Southwest 259 298 7,000  Level FlightAware ADS-B
02:43PM 47.3156 -122.1860 213° Southwest 257 296 7,000  Level FlightAware ADS-B
02:43PM 47.3120 -122.1910 221° Southwest 255 293 7,000  Level FlightAware ADS-B
02:43PM 47.3088 -122.1960 229° Southwest 252 290 7,000  Level FlightAware ADS-B
02:43PM 47.3061 -122.2020 236° Southwest 251 289 7,000  Level FlightAware ADS-B
02:43PM 47.3035 -122.2090 246° West 249 287 7,000  Level FlightAware ADS-B
02:43PM 47.3023 -122.2150 254° West 249 287 7,000  Level FlightAware ADS-B
02:44PM 47.3015 -122.2210 260° West 251 289 7,000  Level FlightAware ADS-B
02:44PM 47.3010 -122.2270 263° West 252 290 7,000  Level FlightAware ADS-B
02:44PM 47.3006 -122.2350 266° West 252 290 7,000  Level FlightAware ADS-B
02:44PM 47.3001 -122.2590 269° West 252 290 7,000  Level FlightAware ADS-B
02:44PM 47.2997 -122.2850 269° West 250 288 7,000  Level FlightAware ADS-B
02:44PM 47.2994 -122.3110 269° West 251 289 7,000  Level FlightAware ADS-B
02:45PM 47.2991 -122.3370 269° West 251 289 7,000  Level FlightAware ADS-B
02:45PM 47.2987 -122.3640 269° West 251 289 7,000  Level FlightAware ADS-B
02:45PM 47.2986 -122.3740 270° West 251 289 7,000  Level FlightAware ADS-B
02:45PM 47.2988 -122.3810 272° West 252 290 7,000  Level FlightAware ADS-B
02:45PM 47.2992 -122.3890 275° West 253 291 7,000  Level FlightAware ADS-B
02:45PM 47.3010 -122.4090 279° West 254 292 7,000  Level FlightAware ADS-B
02:46PM 47.3044 -122.4400 280° West 256 295 7,000  Level FlightAware ADS-B
02:46PM 47.3060 -122.4530 281° West 257 296 7,000  Level FlightAware ADS-B
02:46PM 47.3072 -122.4600 286° West 257 296 7,000  Level FlightAware ADS-B
02:46PM 47.3086 -122.4650 290° West 259 298 7,000  Level FlightAware ADS-B
02:46PM 47.3102 -122.4700 297° West 262 302 7,000 840 Level FlightAware ADS-B
02:46PM 47.3125 -122.4760 301° West 263 303 7,100 1,500 Climbing FlightAware ADS-B
02:46PM 47.3156 -122.4820 307° West 264 304 7,200 1,200 Climbing FlightAware ADS-B
02:46PM 47.3278 -122.5030 311° West 263 303 7,500 1,320 Climbing FlightAware ADS-B
02:47PM 47.3371 -122.5180 314° West 261 300 7,800 1,500 Climbing FlightAware ADS-B
02:47PM 47.3413 -122.5240 317° Northwest 262 302 7,900 1,320 Climbing FlightAware ADS-B
02:47PM 47.3453 -122.5290 323° Northwest 265 305 8,000 1,500 Climbing FlightAware ADS-B
02:47PM 47.3490 -122.5320 327° Northwest 267 307 8,100 2,160 Climbing FlightAware ADS-B
02:47PM 47.3569 -122.5390 331° Northwest 270 311 8,400 1,620 Climbing FlightAware ADS-B
02:47PM 47.3739 -122.5520 333° Northwest 274 315 8,700 1,380 Climbing FlightAware ADS-B
02:47PM 47.3911 -122.5650 334° Northwest 277 319 9,100 1,740 Climbing FlightAware ADS-B
02:48PM 47.4094 -122.5780 334° Northwest 279 321 9,600 1,860 Climbing FlightAware ADS-B
02:48PM 47.4164 -122.5825 335° Northwest 280 322 9,800 1,020 Climbing FlightAware ADS-B (CYWH)
02:48PM 47.4362 -122.5960 335° Northwest 282 325 10,000 240 Climbing FlightAware ADS-B
02:48PM 47.4639 -122.6155 335° Northwest 260 299 10,000  Level FlightAware ADS-B (CYWH)
02:49PM 47.4697 -122.6190 335° Northwest 255 293 10,000  Level FlightAware ADS-B
02:49PM 47.4980 -122.6387 335° Northwest 235 270 10,000  Level FlightAware ADS-B (CYVR)
02:49PM 47.5004 -122.6400 335° Northwest 235 270 10,000  Level FlightAware ADS-B
02:49PM 47.5250 -122.6570 335° Northwest 232 267 10,000  Level FlightAware ADS-B
02:50PM 47.5317 -122.6620 331° Northwest 230 265 10,000  Level FlightAware ADS-B
02:50PM 47.5344 -122.6640 326° Northwest 228 262 10,000  Level FlightAware ADS-B
02:50PM 47.5369 -122.6670 322° Northwest 225 259 10,000  Level FlightAware ADS-B
02:50PM 47.5392 -122.6700 317° Northwest 223 257 10,000  Level FlightAware ADS-B
02:50PM 47.5421 -122.6750 311° West 219 252 10,000  Level FlightAware ADS-B
02:50PM 47.5440 -122.6790 306° West 216 249 10,000  Level FlightAware ADS-B
02:50PM 47.5462 -122.6840 300° West 213 245 10,000  Level FlightAware ADS-B
02:50PM 47.5476 -122.6880 294° West 210 242 10,000  Level FlightAware ADS-B
02:50PM 47.5499 -122.6980 288° West 208 239 10,000  Level FlightAware ADS-B
02:50PM 47.5532 -122.7130 289° West 210 242 10,000  Level FlightAware ADS-B
02:50PM 47.5565 -122.7240 296° West 212 244 10,000  Level FlightAware ADS-B
02:51PM 47.5610 -122.7360 301° West 214 246 10,000  Level FlightAware ADS-B
02:51PM 47.5727 -122.7650 301° West 215 247 10,000  Level FlightAware ADS-B
02:51PM 47.5751 -122.7708 300° West 212 244 10,000  Level FlightAware ADS-B (CYWH)
02:51PM 47.5803 -122.7840 300° West 211 243 10,000  Level FlightAware ADS-B
02:52PM 47.5958 -122.8220 301° West 216 249 10,000  Level FlightAware ADS-B
02:52PM 47.5978 -122.8270 301° West 216 249 10,000  Level FlightAware ADS-B (CYWH)
02:52PM 47.6111 -122.8600 301° West 215 247 10,000  Level FlightAware ADS-B
02:52PM 47.6171 -122.8749 301° West 215 247 10,000  Level FlightAware ADS-B (CYWH)
02:53PM 47.6265 -122.8980 301° West 214 246 10,000  Level FlightAware ADS-B
02:53PM 47.6338 -122.9165 301° West 213 245 10,000  Level FlightAware ADS-B (CYWH)
02:53PM 47.6383 -122.9280 301° West 210 242 10,000  Level FlightAware ADS-B
02:53PM 47.6491 -122.9544 301° West 196 226 10,000  Level FlightAware ADS-B (CYWH)
02:53PM 47.6495 -122.9560 300° West 196 226 10,000  Level FlightAware ADS-B
02:54PM 47.6565 -122.9730 301° West 190 219 10,000  Level FlightAware ADS-B
02:54PM 47.6565 -122.9731 301° West 188 216 10,000  Level FlightAware ADS-B (CYWH)
02:54PM 47.6676 -123.0010 301° West 182 209 10,000  Level FlightAware ADS-B
02:54PM 47.6704 -123.0077 300° West 180 207 10,000  Level FlightAware ADS-B (CYWH)
02:55PM 47.6807 -123.0340 300° West 180 207 10,000  Level FlightAware ADS-B
02:55PM 47.6837 -123.0412 301° West 180 207 10,000  Level FlightAware ADS-B (CYWH)
02:55PM 47.6893 -123.0550 301° West 184 212 10,000  Level FlightAware ADS-B
02:55PM 47.7010 -123.0840 301° West 183 211 10,000  Level FlightAware ADS-B
02:56PM 47.7100 -123.1070 301° West 185 213 10,000  Level FlightAware ADS-B
02:56PM 47.7137 -123.1162 300° West 199 229 10,000  Level FlightAware ADS-B (CYWH)
02:56PM 47.7209 -123.1350 300° West 211 243 10,000  Level FlightAware ADS-B
02:57PM 47.7289 -123.1544 301° West 215 247 10,000  Level FlightAware ADS-B (CYWH)
02:57PM 47.7362 -123.1730 301° West 215 247 10,000  Level FlightAware ADS-B
02:57PM 47.7481 -123.2020 301° West 220 253 10,000  Level FlightAware ADS-B
02:57PM 47.7505 -123.2082 301° West 220 253 10,000  Level FlightAware ADS-B (CYVR)
02:57PM 47.7560 -123.2220 301° West 217 250 10,000  Level FlightAware ADS-B
02:58PM 47.7612 -123.2348 301° West 204 235 10,000  Level FlightAware ADS-B (CYVR)
02:58PM 47.7665 -123.2480 301° West 195 224 10,000  Level FlightAware ADS-B
02:58PM 47.7687 -123.2538 300° West 191 220 10,000  Level FlightAware ADS-B (CYWH)
02:58PM 47.7744 -123.2680 300° West 190 219 10,000  Level FlightAware ADS-B
02:58PM 47.7811 -123.2855 300° West 187 215 10,000  Level FlightAware ADS-B (CYWH)
02:58PM 47.7852 -123.2960 300° West 188 216 10,000  Level FlightAware ADS-B
02:59PM 47.7942 -123.3190 300° West 196 226 10,000  Level FlightAware ADS-B
02:59PM 47.7942 -123.3189 300° West 197 227 10,000  Level FlightAware ADS-B (CYWH)
02:59PM 47.8060 -123.3490 301° West 200 230 10,000  Level FlightAware ADS-B
02:59PM 47.8093 -123.3568 301° West 197 227 10,000  Level FlightAware ADS-B (CYWH)
03:00PM 47.8201 -123.3840 300° West 200 230 10,000  Level FlightAware ADS-B
03:00PM 47.8226 -123.3902 300° West 200 230 10,000  Level FlightAware ADS-B (CYWH)
03:00PM 47.8356 -123.4230 300° West 198 228 10,000  Level FlightAware ADS-B
03:00PM 47.8363 -123.4249 300° West 200 230 10,000  Level FlightAware ADS-B (CYWH)
03:01PM 47.8433 -123.4430 300° West 202 232 10,000  Level FlightAware ADS-B
03:01PM 47.8507 -123.4617 301° West 203 234 10,000  Level FlightAware ADS-B (CYWH)
03:01PM 47.8580 -123.4800 300° West 203 234 10,000  Level FlightAware ADS-B
03:01PM 47.8650 -123.4979 301° West 203 234 10,000  Level FlightAware ADS-B (CYWH)
03:01PM 47.8697 -123.5100 300° West 203 234 10,000  Level FlightAware ADS-B
03:02PM 47.8767 -123.5280 300° West 205 236 10,000  Level FlightAware ADS-B
03:02PM 47.8779 -123.5308 300° West 202 232 10,000  Level FlightAware ADS-B (CYWH)
03:02PM 47.8843 -123.5470 300° West 197 227 10,000  Level FlightAware ADS-B
03:02PM 47.8953 -123.5749 300° West 200 230 10,000  Level FlightAware ADS-B (CYVR)
03:02PM 47.8969 -123.5790 300° West 201 231 10,000  Level FlightAware ADS-B
03:03PM 47.9057 -123.6020 301° West 202 232 10,000  Level FlightAware ADS-B (CYVR)
03:03PM 47.9097 -123.6120 301° West 201 231 10,000  Level FlightAware ADS-B
03:04PM 47.9277 -123.6579 300° West 200 230 10,000  Level FlightAware ADS-B (CYVR)
03:04PM 47.9444 -123.7004 300° West 199 229 10,000  Level FlightAware ADS-B (CYVR)
03:05PM 47.9536 -123.7243 300° West 205 236 10,000  Level FlightAware ADS-B (CYWH)
03:05PM 47.9688 -123.7630 300° West 202 232 10,000  Level FlightAware ADS-B (CYVR)
03:05PM 47.9811 -123.7946 300° West 196 226 10,000  Level FlightAware ADS-B (CYWH)
03:06PM 47.9895 -123.8163 300° West 195 224 10,000  Level FlightAware ADS-B (CYWH)
03:06PM 48.0049 -123.8559 300° West 196 226 10,000  Level FlightAware ADS-B (CYWH)
03:07PM 48.0152 -123.8824 300° West 198 228 10,000  Level FlightAware ADS-B (CYWH)
03:08PM 48.0319 -123.9259 300° West 198 228 10,000  Level FlightAware ADS-B (CYVR)
03:08PM 48.0526 -123.9791 300° West 201 231 10,000  Level FlightAware ADS-B (CYVR)
03:09PM 48.0703 -124.0247 300° West 199 229 10,000  Level FlightAware ADS-B (CYVR)
03:09PM 48.0845 -124.0617 300° West 203 234 10,000  Level FlightAware ADS-B (CYVR)
03:10PM 48.1015 -124.1053 305° West 247 284 10,000  Level FlightAware ADS-B (CYWH)
03:10PM 48.1068 -124.1141 317° Northwest 256 295 10,000  Level FlightAware ADS-B (CYVR)
03:10PM 48.1165 -124.1237 334° Northwest 271 312 10,000  Level FlightAware ADS-B (CYVR)
03:10PM 48.1250 -124.1283 348° North 285 328 10,000  Level FlightAware ADS-B (CYVR)
03:10PM 48.1551 -124.1216 28° Northeast 306 352 10,000  Level FlightAware ADS-B (CYWH)
03:11PM 48.1733 -124.0902 69° East 310 357 10,000  Level FlightAware ADS-B (CYVR)
03:11PM 48.1756 -124.0783 85° East 308 354 10,000  Level FlightAware ADS-B (CYWH)
03:11PM 48.1750 -124.0492 99° East 306 352 10,000  Level FlightAware ADS-B (CYWH)
03:12PM 48.1677 -123.9872 100° East 305 351 10,000  Level FlightAware ADS-B (CYWH)
03:12PM 48.1602 -123.9243 100° East 305 351 10,000  Level FlightAware ADS-B (CYVR)
03:13PM 48.1526 -123.8571 100° East 304 350 10,000  Level FlightAware ADS-B (CYVR)
03:13PM 48.1463 -123.8020 100° East 305 351 10,000  Level FlightAware ADS-B (CYVR)
03:14PM 48.1395 -123.7421 100° East 305 351 10,000  Level FlightAware ADS-B (CYWH)
03:14PM 48.1317 -123.6739 100° East 306 352 10,000  Level FlightAware ADS-B (CYWH)
03:15PM 48.1248 -123.6157 100° East 306 352 10,000  Level FlightAware ADS-B (CYWH)
03:15PM 48.1175 -123.5529 100° East 306 352 10,000  Level FlightAware ADS-B (CYWH)
03:16PM 48.1091 -123.4818 100° East 305 351 10,000  Level FlightAware ADS-B (CYVR)
03:16PM 48.1000 -123.4048 100° East 306 352 10,000  Level FlightAware ADS-B (CYWH)
03:17PM 48.0938 -123.3532 100° East 307 353 10,000  Level FlightAware ADS-B (CYWH)
03:17PM 48.0878 -123.3090 104° East 305 351 10,000  Level FlightAware ADS-B
03:17PM 48.0832 -123.2850 108° East 304 350 10,000  Level FlightAware ADS-B
03:17PM 48.0833 -123.2856 108° East 304 350 10,000  Level FlightAware ADS-B (CYWH)
03:18PM 48.0753 -123.2530 112° Southeast 302 348 10,000  Level FlightAware ADS-B
03:18PM 48.0659 -123.2181 111° Southeast 304 350 10,000  Level FlightAware ADS-B (CYVR)
03:18PM 48.0599 -123.1950 111° Southeast 302 348 10,000  Level FlightAware ADS-B
03:18PM 48.0468 -123.1447 111° Southeast 306 352 10,000  Level FlightAware ADS-B (CYWH)
03:19PM 48.0442 -123.1340 111° Southeast 306 352 10,000  Level FlightAware ADS-B
03:19PM 48.0326 -123.0903 111° Southeast 307 353 10,000  Level FlightAware ADS-B (CYWH)
03:19PM 48.0286 -123.0750 111° Southeast 307 353 10,000  Level FlightAware ADS-B
03:19PM 48.0241 -123.0580 111° Southeast 307 353 10,000  Level FlightAware ADS-B (CYVR)
03:19PM 48.0157 -123.0260 111° Southeast 304 350 10,000 -480 Level FlightAware ADS-B
03:20PM 48.0109 -123.0076 111° Southeast 304 350 9,800 -1,200 Descending FlightAware ADS-B (CYWH)
03:20PM 48.0080 -122.9970 111° Southeast 303 349 9,700 -900 Descending FlightAware ADS-B
03:20PM 48.0000 -122.9660 111° Southeast 297 342 9,500 -720 Descending FlightAware ADS-B
03:20PM 48.0058 -122.9882 112° Southeast 292 336 9,400 -780 Descending FlightAware ADS-B (CYWH)
03:20PM 47.9922 -122.9370 111° Southeast 292 336 9,300 -1,320 Descending FlightAware ADS-B
03:21PM 47.9845 -122.9070 112° Southeast 287 330 8,900 -1,440 Descending FlightAware ADS-B
03:21PM 47.9839 -122.9053 112° Southeast 286 329 8,800 -1,200 Descending FlightAware ADS-B (CYWH)
03:21PM 47.9772 -122.8800 112° Southeast 284 327 8,600 -1,200 Descending FlightAware ADS-B
03:21PM 47.9730 -122.8642 112° Southeast 282 325 8,400 -1,620 Descending FlightAware ADS-B (CYWH)
03:21PM 47.9698 -122.8520 111° Southeast 282 325 8,200 -1,620 Descending FlightAware ADS-B
03:21PM 47.9677 -122.8443 111° Southeast 279 321 8,000 -1,380 Descending FlightAware ADS-B (CYVR)
03:21PM 47.9612 -122.8200 111° Southeast 278 320 7,800 -1,500 Descending FlightAware ADS-B
03:21PM 47.9574 -122.8050 112° Southeast 276 318 7,600 -1,200 Descending FlightAware ADS-B (CYWH)
03:22PM 47.9541 -122.7930 112° Southeast 276 318 7,500 -1,140 Descending FlightAware ADS-B
03:22PM 47.9525 -122.7870 114° Southeast 274 315 7,400 -1,500 Descending FlightAware ADS-B
03:22PM 47.9499 -122.7800 119° Southeast 274 315 7,300 -1,740 Descending FlightAware ADS-B
03:22PM 47.9476 -122.7750 125° Southeast 272 313 7,200 -1,020 Descending FlightAware ADS-B
03:22PM 47.9453 -122.7710 129° Southeast 271 312 7,200 -1,020 Level FlightAware ADS-B
03:22PM 47.9428 -122.7664 133° Southeast 268 308 7,100 -1,020 Descending FlightAware ADS-B (CYVR)
03:22PM 47.9399 -122.7620 137° Southeast 266 306 7,100  Level FlightAware ADS-B
03:22PM 47.9373 -122.7590 140° Southeast 262 302 7,100 -1,020 Level FlightAware ADS-B
03:22PM 47.9373 -122.7590 143° Southeast 260 299 7,000 -1,500 Descending FlightAware ADS-B (CYVR)
03:22PM 47.9335 -122.7550 144° Southeast 260 299 7,000  Level FlightAware ADS-B
03:22PM 47.9297 -122.7510 148° Southeast 257 296 7,000  Level FlightAware ADS-B
03:22PM 47.9317 -122.7529 149° Southeast 256 295 7,000  Level FlightAware ADS-B (CYWH)
03:22PM 47.9211 -122.7440 150° Southeast 253 291 7,000  Level FlightAware ADS-B
03:22PM 47.9065 -122.7302 148° Southeast 251 289 7,000  Level FlightAware ADS-B (CYWH)
03:23PM 47.9059 -122.7300 148° Southeast 251 289 7,000  Level FlightAware ADS-B
03:23PM 47.8910 -122.7160 149° Southeast 252 290 7,000 -600 Level FlightAware ADS-B
03:23PM 47.8843 -122.7099 149° Southeast 251 289 6,800 -2,040 Descending FlightAware ADS-B (CYVR)
03:23PM 47.8757 -122.7020 149° Southeast 253 291 6,500 -1,080 Descending FlightAware ADS-B
03:23PM 47.8607 -122.6890 149° Southeast 244 281 6,400 -780 Descending FlightAware ADS-B
03:24PM 47.8463 -122.6760 148° Southeast 238 274 6,100 -1,260 Descending FlightAware ADS-B
03:24PM 47.8385 -122.6686 149° Southeast 234 269 5,900 -1,500 Descending FlightAware ADS-B (CYVR)
03:24PM 47.8345 -122.6650 149° Southeast 233 268 5,800 -2,340 Descending FlightAware ADS-B
03:24PM 47.8219 -122.6540 149° Southeast 229 264 5,200 -2,520 Descending FlightAware ADS-B
03:24PM 47.8084 -122.6420 149° Southeast 229 264 4,600 -2,400 Descending FlightAware ADS-B
03:25PM 47.7852 -122.6210 149° Southeast 227 261 3,600 -2,340 Descending FlightAware ADS-B
03:25PM 47.7707 -122.6080 149° Southeast 222 255 3,000 -2,040 Descending FlightAware ADS-B
03:25PM 47.7565 -122.5950 150° Southeast 218 251 2,500 -660 Descending FlightAware ADS-B
03:26PM 47.7220 -122.5220 112° Southeast 209 241 2,200 -240 Descending FlightAware ADS-B
03:26PM 47.7165 -122.5020 112° Southeast 204 235 2,200  Level FlightAware ADS-B
03:27PM 47.7104 -122.4800 112° Southeast 204 235 2,200  Level FlightAware ADS-B
03:27PM 47.7017 -122.4520 112° Southeast 204 235 2,200  Level FlightAware ADS-B
03:28PM 47.6666 -122.4180 112° Southeast 204 235 2,200  Level FlightAware ADS-B
03:28PM 47.6630 -122.4150 151° Southeast 193 222 2,200  Level FlightAware ADS-B
03:28PM 47.6540 -122.4080 150° Southeast 193 222 2,200  Level FlightAware ADS-B
03:28PM 47.6415 -122.3970 150° Southeast 194 223 2,200 -240 Level FlightAware ADS-B
03:29PM 47.6302 -122.3870 150° Southeast 178 205 2,100 -600 Descending FlightAware ADS-B
03:29PM 47.6179 -122.3770 150° Southeast 166 191 1,900 -900 Descending FlightAware ADS-B
03:29PM 47.6078 -122.3680 150° Southeast 166 191 1,600 -900 Descending FlightAware ADS-B
03:30PM 47.5877 -122.3510 150° Southeast 159 183 1,200 -840 Descending FlightAware ADS-B
03:31PM 47.5594 -122.3272 150° Southeast 162 186 500 -840 Descending Seattle Center
03:34PM 47.5318 -122.3036 102° East  Level Estimated
03:41PM 47.5300 -122.3020 270° West  Level Estimated
03:42PM 47.5300 -122.3020 201° Southwest  Level Estimated
03:43PM 47.5300 -122.3020 239° Southwest  Level Estimated